Time;durP1;ratioP1;P1;durP2;ratioP2;P2;SDS_P1;SDS_P2;PMS_P1;PMS_P2;Temp;Humidity;BMP_temperature;BMP_pressure;BME280_temperature;BME280_humidity;BME280_pressure;Samples;Min_cycle;Max_cycle;Signal;HPM_P1;HPM_P2
2022/06/11 00:01:23;;;;;;;18.63;7.40;;;;;;;;;;10326872;28;20054;-68
2022/06/11 00:06:29;;;;;;;15.57;8.38;;;;;;;;;;10340825;28;20061;-68
2022/06/11 00:11:32;;;;;;;16.20;7.95;;;;;;;;;;10365752;28;20330;-68
2022/06/11 00:16:34;;;;;;;14.65;7.78;;;;;;;;;;10366354;28;20049;-68
2022/06/11 00:21:41;;;;;;;12.68;7.63;;;;;;;;;;10359333;28;20051;-68
2022/06/11 00:26:45;;;;;;;13.75;7.05;;;;;;;;;;10371043;28;20054;-68
2022/06/11 00:31:49;;;;;;;16.38;6.95;;;;;;;;;;10374677;28;20042;-68
2022/06/11 00:36:53;;;;;;;15.90;7.43;;;;;;;;;;10374376;28;20432;-68
2022/06/11 00:41:59;;;;;;;15.77;7.88;;;;;;;;;;10374081;28;20042;-69
2022/06/11 00:47:05;;;;;;;16.48;7.03;;;;;;;;;;10374026;28;20054;-69
2022/06/11 00:52:21;;;;;;;13.90;6.72;;;;;;;;;;10373864;28;20050;-69
2022/06/11 00:57:25;;;;;;;15.02;7.95;;;;;;;;;;10373774;28;20050;-68
2022/06/11 01:02:28;;;;;;;14.43;8.10;;;;;;;;;;10373314;28;20043;-69
2022/06/11 01:07:58;;;;;;;15.07;8.43;;;;;;;;;;10373735;28;20046;-69
2022/06/11 01:13:11;;;;;;;11.38;7.57;;;;;;;;;;10372203;28;20057;-69
2022/06/11 01:18:30;;;;;;;13.27;7.53;;;;;;;;;;10373198;28;20373;-69
2022/06/11 01:24:20;;;;;;;15.88;8.30;;;;;;;;;;10358582;28;20058;-69
2022/06/11 01:29:42;;;;;;;11.60;7.50;;;;;;;;;;10276239;28;20055;-68
2022/06/11 01:34:52;;;;;;;13.02;7.90;;;;;;;;;;10278976;28;20051;-68
2022/06/11 01:40:01;;;;;;;11.23;7.15;;;;;;;;;;10273717;28;20067;-69
2022/06/11 01:45:13;;;;;;;16.15;7.15;;;;;;;;;;10277676;28;20070;-68
2022/06/11 01:50:18;;;;;;;14.23;6.70;;;;;;;;;;10281698;28;20063;-68
2022/06/11 01:55:31;;;;;;;13.85;8.32;;;;;;;;;;10273073;29;20073;-68
2022/06/11 02:00:38;;;;;;;12.35;7.40;;;;;;;;;;10286279;28;20131;-69
2022/06/11 02:05:55;;;;;;;11.80;6.80;;;;;;;;;;10353568;28;20073;-68
2022/06/11 02:11:12;;;;;;;12.18;7.50;;;;;;;;;;10370050;28;20046;-68
2022/06/11 02:16:20;;;;;;;12.90;7.43;;;;;;;;;;10371072;28;20042;-69
2022/06/11 02:21:27;;;;;;;19.08;7.00;;;;;;;;;;10363503;28;20062;-68
2022/06/11 02:26:32;;;;;;;15.18;6.93;;;;;;;;;;10370613;28;20054;-69
2022/06/11 02:31:45;;;;;;;13.98;6.60;;;;;;;;;;10369246;28;20042;-68
2022/06/11 02:36:55;;;;;;;11.15;6.47;;;;;;;;;;10369772;28;20053;-69
2022/06/11 02:41:58;;;;;;;10.40;6.15;;;;;;;;;;10369689;28;20050;-69
2022/06/11 02:47:03;;;;;;;11.93;6.25;;;;;;;;;;10368777;28;20054;-69
2022/06/11 02:52:09;;;;;;;11.10;6.07;;;;;;;;;;10369013;28;20272;-69
2022/06/11 02:57:14;;;;;;;13.45;5.28;;;;;;;;;;10368978;28;20218;-69
2022/06/11 03:02:18;;;;;;;9.38;5.07;;;;;;;;;;10368653;28;20057;-69
2022/06/11 03:07:23;;;;;;;22.75;6.68;;;;;;;;;;10367291;28;20046;-70
2022/06/11 03:12:25;;;;;;;14.60;5.68;;;;;;;;;;10368406;28;20085;-69
2022/06/11 03:17:29;;;;;;;14.52;5.78;;;;;;;;;;10368772;28;20061;-69
2022/06/11 03:22:34;;;;;;;19.58;6.70;;;;;;;;;;10358206;28;20061;-69
2022/06/11 03:27:39;;;;;;;13.18;5.32;;;;;;;;;;10367799;28;20417;-70
2022/06/11 03:32:43;;;;;;;20.17;4.85;;;;;;;;;;10363686;28;20114;-69
2022/06/11 03:37:46;;;;;;;11.10;4.95;;;;;;;;;;10353467;28;20057;-69
2022/06/11 03:42:52;;;;;;;8.13;3.90;;;;;;;;;;10364357;28;20056;-70
2022/06/11 03:47:56;;;;;;;14.35;5.10;;;;;;;;;;10366283;28;20050;-70
2022/06/11 03:52:59;;;;;;;8.25;3.60;;;;;;;;;;10366643;28;20054;-69
2022/06/11 03:58:02;;;;;;;7.15;2.78;;;;;;;;;;10364618;28;20038;-70
2022/06/11 04:03:06;;;;;;;10.07;2.88;;;;;;;;;;10352354;28;20058;-69
2022/06/11 04:08:10;;;;;;;5.03;2.20;;;;;;;;;;10366568;28;20241;-70
2022/06/11 04:13:13;;;;;;;6.65;2.20;;;;;;;;;;10352641;28;20250;-70
2022/06/11 04:18:27;;;;;;;8.65;2.20;;;;;;;;;;10366245;28;20049;-70
2022/06/11 04:23:30;;;;;;;6.55;2.13;;;;;;;;;;10354210;28;20058;-70
2022/06/11 04:28:33;;;;;;;3.80;1.98;;;;;;;;;;10365266;28;20082;-70
2022/06/11 04:33:38;;;;;;;6.05;2.00;;;;;;;;;;10350799;28;20058;-70
2022/06/11 04:38:40;;;;;;;5.03;1.92;;;;;;;;;;10352932;28;20066;-70
2022/06/11 04:43:43;;;;;;;15.27;4.35;;;;;;;;;;10365025;28;20042;-70
2022/06/11 04:48:47;;;;;;;7.78;2.75;;;;;;;;;;10364391;28;20046;-73
2022/06/11 04:53:50;;;;;;;6.25;2.20;;;;;;;;;;10365603;28;20050;-70
2022/06/11 04:58:53;;;;;;;14.68;2.45;;;;;;;;;;10365132;28;20053;-70
2022/06/11 05:03:57;;;;;;;3.13;1.50;;;;;;;;;;10349568;28;20081;-70
2022/06/11 05:09:00;;;;;;;6.38;1.98;;;;;;;;;;10365147;28;20053;-69
2022/06/11 05:14:03;;;;;;;6.90;2.85;;;;;;;;;;10363500;28;20038;-70
2022/06/11 05:19:07;;;;;;;6.18;2.40;;;;;;;;;;10347840;28;20050;-70
2022/06/11 05:24:10;;;;;;;5.45;2.45;;;;;;;;;;10355377;28;20074;-70
2022/06/11 05:29:27;;;;;;;9.40;2.60;;;;;;;;;;10369335;28;20085;-70
2022/06/11 05:34:31;;;;;;;11.80;2.60;;;;;;;;;;10368903;28;20046;-70
2022/06/11 05:39:34;;;;;;;7.50;2.97;;;;;;;;;;10356193;28;20054;-70
2022/06/11 05:44:36;;;;;;;3.92;2.47;;;;;;;;;;10366481;28;20038;-71
2022/06/11 05:49:46;;;;;;;14.40;3.25;;;;;;;;;;10367596;28;20038;-71
2022/06/11 05:54:51;;;;;;;14.00;3.00;;;;;;;;;;10366949;28;20038;-72
2022/06/11 05:59:57;;;;;;;1.60;1.27;;;;;;;;;;10368426;28;20049;-73
2022/06/11 06:05:01;;;;;;;1.10;1.10;;;;;;;;;;10368676;28;20046;-72
2022/06/11 06:10:05;;;;;;;1.90;1.90;;;;;;;;;;10367982;28;20093;-75
2022/06/11 06:15:12;;;;;;;2.20;2.20;;;;;;;;;;10367018;28;20038;-76
2022/06/11 06:20:17;;;;;;;2.97;2.88;;;;;;;;;;10365281;28;20050;-77
2022/06/11 06:25:22;;;;;;;4.20;4.10;;;;;;;;;;10353851;28;20042;-70
2022/06/11 06:30:25;;;;;;;5.05;4.95;;;;;;;;;;10354013;28;20096;-76
2022/06/11 06:35:29;;;;;;;5.70;5.50;;;;;;;;;;10367311;28;20046;-76
2022/06/11 06:40:31;;;;;;;6.60;6.40;;;;;;;;;;10359777;28;20337;-76
2022/06/11 06:45:34;;;;;;;8.75;8.45;;;;;;;;;;10352410;28;20042;-77
2022/06/11 06:50:38;;;;;;;10.98;10.48;;;;;;;;;;10366835;28;20046;-71
2022/06/11 06:55:41;;;;;;;14.10;13.50;;;;;;;;;;10366371;28;20042;-70
2022/06/11 07:00:46;;;;;;;16.40;15.60;;;;;;;;;;10366451;28;20046;-71
2022/06/11 07:05:50;;;;;;;19.45;18.48;;;;;;;;;;10353177;28;20105;-73
2022/06/11 07:10:55;;;;;;;21.55;20.45;;;;;;;;;;10365895;28;20054;-72
2022/06/11 07:15:58;;;;;;;24.52;23.23;;;;;;;;;;10352622;28;20302;-71
2022/06/11 07:21:05;;;;;;;26.17;24.77;;;;;;;;;;10354602;28;20062;-72
2022/06/11 07:26:14;;;;;;;27.70;26.20;;;;;;;;;;10364648;28;20237;-71
2022/06/11 07:31:16;;;;;;;31.40;29.70;;;;;;;;;;10354878;28;20054;-72
2022/06/11 07:36:20;;;;;;;37.35;35.25;;;;;;;;;;10357237;28;20045;-72
2022/06/11 07:41:23;;;;;;;44.63;42.03;;;;;;;;;;10350999;28;20050;-70
2022/06/11 07:46:25;;;;;;;49.47;46.55;;;;;;;;;;10357975;28;20046;-71
2022/06/11 07:51:29;;;;;;;54.70;51.40;;;;;;;;;;10342669;28;20053;-71
2022/06/11 07:56:32;;;;;;;61.95;58.05;;;;;;;;;;10366080;28;20050;-70
2022/06/11 08:01:35;;;;;;;66.47;62.28;;;;;;;;;;10349351;28;20050;-71
2022/06/11 08:06:38;;;;;;;73.13;68.38;;;;;;;;;;10364745;28;20088;-72
2022/06/11 08:11:41;;;;;;;78.28;73.07;;;;;;;;;;10363419;28;20046;-72
2022/06/11 08:16:44;;;;;;;83.15;77.55;;;;;;;;;;10364358;28;20049;-73
2022/06/11 08:21:48;;;;;;;87.43;81.43;;;;;;;;;;10356536;28;20054;-72
2022/06/11 08:26:51;;;;;;;93.10;86.50;;;;;;;;;;10362898;28;20048;-72
2022/06/11 08:31:53;;;;;;;58.67;54.97;;;;;;;;;;10358373;28;20420;-70
2022/06/11 08:36:57;;;;;;;89.32;83.13;;;;;;;;;;10359565;28;20050;-70
2022/06/11 08:42:00;;;;;;;90.65;84.05;;;;;;;;;;10364021;28;20050;-70
2022/06/11 08:47:05;;;;;;;75.37;70.30;;;;;;;;;;10364835;28;20428;-72
2022/06/11 08:52:13;;;;;;;87.00;80.60;;;;;;;;;;10367178;28;20296;-71
2022/06/11 08:57:22;;;;;;;73.40;68.30;;;;;;;;;;10368021;28;20429;-70
2022/06/11 09:02:54;;;;;;;73.55;68.50;;;;;;;;;;10369678;28;20754;-71
2022/06/11 09:08:12;;;;;;;54.35;50.70;;;;;;;;;;10346871;28;20754;-72
2022/06/11 09:13:38;;;;;;;89.40;82.90;;;;;;;;;;10372407;28;20046;-72
2022/06/11 09:18:57;;;;;;;48.97;46.08;;;;;;;;;;10351899;28;20736;-71
2022/06/11 09:24:28;;;;;;;60.63;56.88;;;;;;;;;;10353976;28;20338;-71
2022/06/11 09:29:41;;;;;;;56.13;52.72;;;;;;;;;;10348333;28;20085;-71
2022/06/11 09:34:49;;;;;;;47.58;44.78;;;;;;;;;;10372275;28;20093;-71
2022/06/11 09:40:02;;;;;;;38.75;36.55;;;;;;;;;;10369242;28;20105;-70
2022/06/11 09:45:12;;;;;;;27.17;25.77;;;;;;;;;;10368540;28;20049;-69
2022/06/11 09:50:22;;;;;;;3.50;3.40;;;;;;;;;;10373217;28;20069;-70
2022/06/11 09:55:31;;;;;;;0.00;0.00;;;;;;;;;;10367574;28;20100;-70
2022/06/11 10:00:39;;;;;;;0.00;0.00;;;;;;;;;;10365100;28;20042;-72
2022/06/11 10:05:46;;;;;;;0.00;0.00;;;;;;;;;;10367664;28;20337;-70
2022/06/11 10:10:51;;;;;;;0.00;0.00;;;;;;;;;;10358458;28;20354;-71
2022/06/11 10:15:55;;;;;;;0.00;0.00;;;;;;;;;;10374779;28;20046;-71
2022/06/11 10:21:01;;;;;;;0.00;0.00;;;;;;;;;;10361853;28;20069;-71
2022/06/11 10:26:11;;;;;;;0.32;0.32;;;;;;;;;;10351994;28;20057;-71
2022/06/11 10:31:18;;;;;;;1.17;0.73;;;;;;;;;;10365485;28;20345;-70
2022/06/11 10:36:25;;;;;;;3.58;1.50;;;;;;;;;;10366108;28;20038;-71
2022/06/11 10:41:41;;;;;;;2.75;1.42;;;;;;;;;;10365150;28;20038;-70
2022/06/11 10:46:43;;;;;;;2.63;1.42;;;;;;;;;;10365965;28;20043;-72
2022/06/11 10:51:52;;;;;;;1.98;1.40;;;;;;;;;;10366341;28;20053;-70
2022/06/11 10:57:01;;;;;;;2.10;1.42;;;;;;;;;;10351300;28;20042;-69
2022/06/11 11:02:18;;;;;;;3.83;1.98;;;;;;;;;;10358989;28;20061;-70
2022/06/11 11:07:24;;;;;;;1.77;1.35;;;;;;;;;;10359034;28;20038;-72
2022/06/11 11:12:33;;;;;;;2.35;1.50;;;;;;;;;;10357067;28;20038;-73
2022/06/11 11:17:36;;;;;;;5.03;1.73;;;;;;;;;;10365164;28;20050;-74
2022/06/11 11:22:41;;;;;;;4.97;1.48;;;;;;;;;;10355341;28;20074;-72
2022/06/11 11:27:50;;;;;;;2.80;1.70;;;;;;;;;;10363436;28;20053;-74
2022/06/11 11:32:52;;;;;;;2.85;1.80;;;;;;;;;;10362635;28;20085;-74
2022/06/11 11:38:00;;;;;;;2.00;1.50;;;;;;;;;;10380361;28;20113;-74
2022/06/11 11:43:09;;;;;;;2.10;1.50;;;;;;;;;;10362654;28;20057;-72
2022/06/11 11:48:16;;;;;;;2.25;1.70;;;;;;;;;;10363869;28;20042;-73
2022/06/11 11:53:23;;;;;;;7.55;2.10;;;;;;;;;;10342015;28;20250;-74
2022/06/11 11:58:32;;;;;;;2.42;1.70;;;;;;;;;;10366681;28;20042;-71
2022/06/11 12:03:39;;;;;;;2.45;1.50;;;;;;;;;;10362689;28;20050;-74
2022/06/11 12:08:47;;;;;;;2.42;1.65;;;;;;;;;;10364083;28;20061;-72
2022/06/11 12:13:53;;;;;;;2.95;1.85;;;;;;;;;;10375708;28;20042;-74
2022/06/11 12:19:00;;;;;;;5.65;2.10;;;;;;;;;;10363873;28;20049;-71
2022/06/11 12:24:07;;;;;;;3.17;1.55;;;;;;;;;;10349747;28;20046;-73
2022/06/11 12:29:18;;;;;;;5.35;2.03;;;;;;;;;;10363312;28;20042;-74
2022/06/11 12:34:31;;;;;;;5.43;2.97;;;;;;;;;;10350132;28;20226;-73
2022/06/11 12:39:46;;;;;;;7.73;2.53;;;;;;;;;;10364001;28;20046;-74
2022/06/11 12:45:05;;;;;;;6.07;3.50;;;;;;;;;;10357375;28;20038;-73
2022/06/11 12:50:21;;;;;;;127.85;72.05;;;;;;;;;;10362366;28;20054;-74
2022/06/11 12:55:45;;;;;;;4.78;3.10;;;;;;;;;;10363050;28;20046;-73
2022/06/11 13:00:55;;;;;;;14.57;8.82;;;;;;;;;;10363147;28;20050;-74
2022/06/11 13:06:16;;;;;;;5.13;3.40;;;;;;;;;;10358422;28;20038;-73
2022/06/11 13:11:26;;;;;;;9.77;6.32;;;;;;;;;;10363890;28;20069;-75
2022/06/11 13:16:37;;;;;;;4.20;2.13;;;;;;;;;;10363165;28;20049;-73
2022/06/11 13:21:50;;;;;;;4.10;2.45;;;;;;;;;;10355453;28;20062;-74
2022/06/11 13:27:01;;;;;;;4.85;2.03;;;;;;;;;;10359405;28;20042;-73
2022/06/11 13:32:14;;;;;;;8.75;3.05;;;;;;;;;;10361751;28;20054;-73
2022/06/11 13:37:27;;;;;;;2.42;1.80;;;;;;;;;;10350578;28;20051;-71
2022/06/11 13:42:37;;;;;;;12.73;8.13;;;;;;;;;;10367454;28;20057;-73
2022/06/11 13:47:58;;;;;;;3.40;2.58;;;;;;;;;;10365914;28;20328;-73
2022/06/11 13:58:43;;;;;;;5.35;3.47;;;;;;;;;;10332400;28;20050;-73
2022/06/11 14:04:13;;;;;;;4.75;2.88;;;;;;;;;;10368657;28;20038;-70
2022/06/11 14:15:30;;;;;;;4.75;3.47;;;;;;;;;;10367273;28;20046;-73
2022/06/11 14:20:50;;;;;;;7.80;4.55;;;;;;;;;;10344191;28;20069;-72
2022/06/11 14:25:58;;;;;;;4.78;3.45;;;;;;;;;;10348708;28;20046;-73
2022/06/11 14:31:09;;;;;;;4.55;3.47;;;;;;;;;;10370320;28;20046;-73
2022/06/11 14:36:26;;;;;;;2.25;1.83;;;;;;;;;;10368924;28;20045;-72
2022/06/11 14:41:50;;;;;;;2.38;1.98;;;;;;;;;;10368613;28;20057;-72
2022/06/11 14:47:01;;;;;;;4.25;1.92;;;;;;;;;;10368241;28;20061;-71
2022/06/11 14:52:41;;;;;;;6.40;4.05;;;;;;;;;;10369289;28;20104;-71
2022/06/11 14:57:52;;;;;;;3.58;1.98;;;;;;;;;;10367193;28;20215;-71
2022/06/11 15:03:18;;;;;;;2.72;1.60;;;;;;;;;;10355682;28;20046;-71
2022/06/11 15:08:40;;;;;;;4.45;2.47;;;;;;;;;;10367875;28;20038;-71
2022/06/11 15:14:06;;;;;;;4.60;1.92;;;;;;;;;;10368042;28;20074;-73
2022/06/11 15:19:12;;;;;;;1.67;1.20;;;;;;;;;;10362623;28;20057;-72
2022/06/11 15:24:19;;;;;;;3.95;2.10;;;;;;;;;;10354020;28;20077;-72
2022/06/11 15:29:26;;;;;;;2.22;2.00;;;;;;;;;;10364409;28;20046;-72
2022/06/11 15:34:32;;;;;;;5.18;2.17;;;;;;;;;;10358209;28;20046;-71
2022/06/11 15:39:38;;;;;;;1.88;1.63;;;;;;;;;;10361895;28;20318;-71
2022/06/11 15:44:45;;;;;;;1.45;1.33;;;;;;;;;;10367949;28;20053;-74
2022/06/11 15:49:49;;;;;;;2.30;1.60;;;;;;;;;;10367653;28;20042;-69
2022/06/11 15:55:14;;;;;;;1.65;1.48;;;;;;;;;;10357938;28;20045;-68
2022/06/11 16:00:29;;;;;;;2.08;1.63;;;;;;;;;;10367198;28;20352;-72
2022/06/11 16:05:35;;;;;;;5.40;2.47;;;;;;;;;;10359888;28;20047;-69
2022/06/11 16:10:39;;;;;;;1.33;1.23;;;;;;;;;;10362009;28;20050;-71
2022/06/11 16:15:44;;;;;;;4.37;1.80;;;;;;;;;;10365069;28;20042;-68
2022/06/11 16:20:57;;;;;;;1.20;1.10;;;;;;;;;;10362286;28;20062;-68
2022/06/11 16:26:02;;;;;;;3.97;1.67;;;;;;;;;;10364194;28;20072;-68
2022/06/11 16:31:07;;;;;;;3.25;1.90;;;;;;;;;;10366608;28;20065;-68
2022/06/11 16:36:10;;;;;;;5.20;1.83;;;;;;;;;;10366177;28;20050;-69
2022/06/11 16:41:19;;;;;;;2.22;1.67;;;;;;;;;;10352918;28;20047;-68
2022/06/11 16:46:27;;;;;;;7.45;2.58;;;;;;;;;;10353498;28;20058;-70
2022/06/11 16:56:51;;;;;;;3.38;1.60;;;;;;;;;;10366288;28;20053;-67
2022/06/11 17:03:05;;;;;;;1.35;1.25;;;;;;;;;;10365765;28;20046;-70
2022/06/11 17:07:28;;;;;;;4.45;1.50;;;;;;;;;;10354007;28;20092;-69
2022/06/11 17:12:39;;;;;;;8.27;2.83;;;;;;;;;;10359259;28;20061;-69
2022/06/11 17:17:49;;;;;;;2.15;1.58;;;;;;;;;;10373946;28;20089;-68
2022/06/11 17:22:53;;;;;;;1.90;1.38;;;;;;;;;;10357752;28;20329;-67
2022/06/11 17:27:57;;;;;;;7.18;1.95;;;;;;;;;;10372666;28;20046;-68
2022/06/11 17:33:02;;;;;;;8.88;2.05;;;;;;;;;;10371487;28;20045;-66
2022/06/11 17:38:04;;;;;;;3.00;1.63;;;;;;;;;;10373315;28;20045;-68
2022/06/11 17:43:10;;;;;;;2.47;2.00;;;;;;;;;;10373256;28;20050;-67
2022/06/11 17:48:14;;;;;;;3.75;1.42;;;;;;;;;;10348212;28;20058;-67
2022/06/11 17:53:18;;;;;;;5.55;2.47;;;;;;;;;;10366613;28;20042;-68
2022/06/11 17:58:21;;;;;;;3.78;2.13;;;;;;;;;;10365989;28;20065;-68
2022/06/11 18:03:25;;;;;;;5.63;2.65;;;;;;;;;;10367808;28;20049;-68
2022/06/11 18:08:27;;;;;;;4.18;2.50;;;;;;;;;;10361735;28;20073;-69
2022/06/11 18:13:30;;;;;;;4.35;2.78;;;;;;;;;;10368780;28;20337;-66
2022/06/11 18:18:37;;;;;;;4.05;2.83;;;;;;;;;;10364063;28;20050;-68
2022/06/11 18:28:59;;;;;;;6.43;3.10;;;;;;;;;;10362965;28;20046;-68
2022/06/11 18:34:03;;;;;;;5.15;3.00;;;;;;;;;;10347700;28;20187;-67
2022/06/11 18:39:06;;;;;;;;;;;;;;;;;;10355583;28;20066;-69
2022/06/11 18:44:09;;;;;;;16.80;4.45;;;;;;;;;;10350715;28;19937;-69
2022/06/11 18:49:14;;;;;;;7.85;3.38;;;;;;;;;;10369207;28;20126;-67
2022/06/11 18:54:17;;;;;;;11.38;4.70;;;;;;;;;;10366557;28;20050;-67
2022/06/11 18:59:20;;;;;;;10.50;4.37;;;;;;;;;;10348955;28;20318;-66
2022/06/11 19:04:24;;;;;;;8.65;4.00;;;;;;;;;;10366897;28;20302;-68
2022/06/11 19:09:26;;;;;;;16.15;4.88;;;;;;;;;;10347945;28;20050;-68
2022/06/11 19:14:29;;;;;;;11.50;5.68;;;;;;;;;;10351651;28;20085;-66
2022/06/11 19:19:33;;;;;;;9.20;7.30;;;;;;;;;;10352991;28;20073;-67
2022/06/11 19:24:35;;;;;;;;;;;;;;;;;;10353784;28;20069;-68
2022/06/11 19:29:38;;;;;;;14.43;6.30;;;;;;;;;;10344737;28;20250;-67
2022/06/11 19:34:42;;;;;;;11.70;6.25;;;;;;;;;;10346612;28;20254;-65
2022/06/11 19:39:49;;;;;;;7.68;5.03;;;;;;;;;;10352718;28;20057;-66
2022/06/11 19:44:55;;;;;;;8.90;5.05;;;;;;;;;;10361626;28;20061;-69
2022/06/11 19:49:59;;;;;;;7.30;4.68;;;;;;;;;;10352199;28;20089;-68
2022/06/11 19:55:01;;;;;;;;;;;;;;;;;;10353284;28;20050;-66
2022/06/11 20:00:04;;;;;;;10.63;5.28;;;;;;;;;;10345693;28;19925;-68
2022/06/11 20:05:11;;;;;;;13.68;5.03;;;;;;;;;;10365540;28;20042;-66
2022/06/11 20:10:16;;;;;;;9.27;4.65;;;;;;;;;;10363887;28;20050;-68
2022/06/11 20:15:19;;;;;;;7.28;4.60;;;;;;;;;;10366020;28;20109;-68
2022/06/11 20:20:23;;;;;;;9.65;5.30;;;;;;;;;;10361250;28;20364;-65
2022/06/11 20:25:25;;;;;;;5.38;4.07;;;;;;;;;;10363226;28;20054;-67
2022/06/11 20:30:29;;;;;;;6.30;4.05;;;;;;;;;;10364968;28;20226;-67
2022/06/11 20:35:33;;;;;;;5.78;4.32;;;;;;;;;;10364055;28;20049;-67
2022/06/11 20:40:36;;;;;;;5.53;4.10;;;;;;;;;;10358708;28;20061;-68
2022/06/11 20:45:39;;;;;;;5.70;4.30;;;;;;;;;;10371401;28;20042;-67
2022/06/11 20:50:44;;;;;;;6.10;3.95;;;;;;;;;;10366153;28;20053;-68
2022/06/11 20:55:47;;;;;;;4.63;3.22;;;;;;;;;;10373428;28;20042;-68
2022/06/11 21:00:50;;;;;;;5.32;3.70;;;;;;;;;;10366988;28;20046;-66
2022/06/11 21:05:54;;;;;;;5.65;4.50;;;;;;;;;;10373228;28;20050;-70
2022/06/11 21:10:58;;;;;;;8.48;3.65;;;;;;;;;;10361593;28;20042;-67
2022/06/11 21:16:00;;;;;;;6.22;4.10;;;;;;;;;;10355571;28;20165;-68
2022/06/11 21:21:16;;;;;;;5.22;3.53;;;;;;;;;;10359479;28;20089;-68
2022/06/11 21:26:20;;;;;;;3.03;2.80;;;;;;;;;;10371926;28;20233;-67
2022/06/11 21:31:23;;;;;;;6.53;3.70;;;;;;;;;;10371330;28;20050;-68
2022/06/11 21:36:26;;;;;;;6.93;3.78;;;;;;;;;;10374022;28;20050;-68
2022/06/11 21:41:44;;;;;;;5.70;3.60;;;;;;;;;;10371654;28;20050;-67
2022/06/11 21:46:49;;;;;;;6.53;3.70;;;;;;;;;;10358924;28;20115;-66
2022/06/11 21:51:56;;;;;;;6.68;4.00;;;;;;;;;;10372724;28;20069;-67
2022/06/11 21:56:59;;;;;;;5.97;3.83;;;;;;;;;;10372666;28;20043;-68
2022/06/11 22:02:01;;;;;;;6.45;3.70;;;;;;;;;;10334636;28;20065;-66
2022/06/11 22:07:06;;;;;;;6.43;4.18;;;;;;;;;;10372689;28;20049;-67
2022/06/11 22:12:11;;;;;;;4.20;3.80;;;;;;;;;;10371453;28;20061;-67
2022/06/11 22:17:15;;;;;;;6.88;4.32;;;;;;;;;;10371594;28;20034;-67
2022/06/11 22:22:20;;;;;;;;;;;;;;;;;;10358382;28;20054;-67
2022/06/11 22:27:24;;;;;;;4.50;4.05;;;;;;;;;;10372074;28;20235;-65
2022/06/11 22:32:29;;;;;;;7.53;5.20;;;;;;;;;;10358161;28;20329;-68
2022/06/11 22:37:33;;;;;;;5.65;4.60;;;;;;;;;;10371545;28;20057;-66
2022/06/11 22:42:37;;;;;;;5.40;4.90;;;;;;;;;;10370552;28;20061;-66
2022/06/11 22:47:39;;;;;;;7.10;5.30;;;;;;;;;;10370660;28;20042;-66
2022/06/11 22:52:43;;;;;;;8.13;5.53;;;;;;;;;;10334476;28;20046;-65
2022/06/11 22:57:46;;;;;;;7.10;5.22;;;;;;;;;;10343199;28;20042;-66
2022/06/11 23:02:49;;;;;;;8.00;5.20;;;;;;;;;;10356611;28;20058;-66
2022/06/11 23:07:53;;;;;;;8.40;5.63;;;;;;;;;;10368166;28;20043;-66
2022/06/11 23:12:56;;;;;;;6.55;5.35;;;;;;;;;;10354549;28;20363;-66
2022/06/11 23:17:59;;;;;;;8.82;5.22;;;;;;;;;;10368493;28;20049;-66
2022/06/11 23:23:04;;;;;;;7.63;5.28;;;;;;;;;;10356022;28;20081;-66
2022/06/11 23:28:07;;;;;;;12.45;6.20;;;;;;;;;;10368288;28;20042;-65
2022/06/11 23:33:12;;;;;;;10.50;6.17;;;;;;;;;;10354377;28;20062;-65
2022/06/11 23:38:18;;;;;;;8.95;5.60;;;;;;;;;;10354661;28;20054;-66
2022/06/11 23:43:22;;;;;;;7.82;4.97;;;;;;;;;;10354217;28;20341;-66
2022/06/11 23:48:27;;;;;;;7.00;5.15;;;;;;;;;;10366883;28;20057;-66
2022/06/11 23:53:31;;;;;;;9.38;5.03;;;;;;;;;;10367475;28;20050;-66
2022/06/11 23:58:33;;;;;;;;;;;;;;;;;;10366958;28;20337;-66
